If you wish to contribute or participate in the discussions about articles you are invited to join SKYbrary as a registered user

 Actions

Ain Arnat Airport

From SKYbrary Wiki

DAAS
Airport
ICAO: DAAS – IATA: QSF
Summary
Name Ain Arnat Airport
Region Africa
Territory Algeria DZ.gif
Location , Setif
Serving Setif
Elevation 1,024.128 m
3,360 ft
3,360 ft1,024.128 m
Type medium airport
Coordinates 36° 10' 41.16" N, 5° 19' 28.16" E
Runways
Designator Length Width Surface ROPS


METAR
Observation DAAS 271300Z 30007KT 9999 SCT026 SCT233 14/M02 Q1020
Station Setif
Date/Time 27 October 2020 13:00:00
Wind direction 300°
Wind speed 07 kts
Lowest cloud amount scattered clouds
Temperature 14°C
Dew point
Humidity 33%
QNH 1020 hPa
Weather condition n/a